sensor_id;sensor_type;location;lat;lon;timestamp;temperature;humidity
45761;DHT22;31471;51.040;14.414;2022-07-15T00:00:40;14.40;99.90
45761;DHT22;31471;51.040;14.414;2022-07-15T00:03:06;14.40;99.90
45761;DHT22;31471;51.040;14.414;2022-07-15T00:05:31;14.50;99.90
45761;DHT22;31471;51.040;14.414;2022-07-15T00:07:57;14.30;99.90
45761;DHT22;31471;51.040;14.414;2022-07-15T00:10:26;14.40;99.90
45761;DHT22;31471;51.040;14.414;2022-07-15T00:12:53;14.40;99.90
45761;DHT22;31471;51.040;14.414;2022-07-15T00:15:19;14.30;99.90
45761;DHT22;31471;51.040;14.414;2022-07-15T00:17:45;14.30;99.90
45761;DHT22;31471;51.040;14.414;2022-07-15T00:20:11;14.30;99.90
45761;DHT22;31471;51.040;14.414;2022-07-15T00:22:37;14.30;99.90
45761;DHT22;31471;51.040;14.414;2022-07-15T00:25:03;14.30;99.90
45761;DHT22;31471;51.040;14.414;2022-07-15T00:27:29;14.30;99.90
45761;DHT22;31471;51.040;14.414;2022-07-15T00:29:55;14.30;99.90
45761;DHT22;31471;51.040;14.414;2022-07-15T00:32:22;14.20;99.90
45761;DHT22;31471;51.040;14.414;2022-07-15T00:34:47;14.20;99.90
45761;DHT22;31471;51.040;14.414;2022-07-15T00:37:13;14.20;99.90
45761;DHT22;31471;51.040;14.414;2022-07-15T00:39:39;14.10;99.90
45761;DHT22;31471;51.040;14.414;2022-07-15T00:42:04;14.10;99.90
45761;DHT22;31471;51.040;14.414;2022-07-15T00:44:30;14.00;99.90
45761;DHT22;31471;51.040;14.414;2022-07-15T00:46:55;14.00;99.90
45761;DHT22;31471;51.040;14.414;2022-07-15T00:49:21;13.90;99.90
45761;DHT22;31471;51.040;14.414;2022-07-15T00:51:47;13.80;99.90
45761;DHT22;31471;51.040;14.414;2022-07-15T00:54:14;13.80;99.90
45761;DHT22;31471;51.040;14.414;2022-07-15T00:56:42;13.70;99.90
45761;DHT22;31471;51.040;14.414;2022-07-15T00:59:09;13.70;99.90
45761;DHT22;31471;51.040;14.414;2022-07-15T01:01:35;13.70;99.90
45761;DHT22;31471;51.040;14.414;2022-07-15T01:04:02;13.70;99.90
45761;DHT22;31471;51.040;14.414;2022-07-15T01:06:27;13.60;99.90
45761;DHT22;31471;51.040;14.414;2022-07-15T01:08:54;13.60;99.90
45761;DHT22;31471;51.040;14.414;2022-07-15T01:11:20;13.60;99.90
45761;DHT22;31471;51.040;14.414;2022-07-15T01:13:46;13.60;99.90
45761;DHT22;31471;51.040;14.414;2022-07-15T01:16:11;13.50;99.90
45761;DHT22;31471;51.040;14.414;2022-07-15T01:18:37;13.50;99.90
45761;DHT22;31471;51.040;14.414;2022-07-15T01:21:04;13.50;99.90
45761;DHT22;31471;51.040;14.414;2022-07-15T01:23:29;13.40;99.90
45761;DHT22;31471;51.040;14.414;2022-07-15T01:26:03;13.40;99.90
45761;DHT22;31471;51.040;14.414;2022-07-15T01:28:28;13.30;99.90
45761;DHT22;31471;51.040;14.414;2022-07-15T01:30:54;13.30;99.90
45761;DHT22;31471;51.040;14.414;2022-07-15T01:33:21;13.30;99.90
45761;DHT22;31471;51.040;14.414;2022-07-15T01:35:46;13.20;99.90
45761;DHT22;31471;51.040;14.414;2022-07-15T01:38:12;13.20;99.90
45761;DHT22;31471;51.040;14.414;2022-07-15T01:40:38;13.20;99.90
45761;DHT22;31471;51.040;14.414;2022-07-15T01:43:05;13.10;99.90
45761;DHT22;31471;51.040;14.414;2022-07-15T01:45:30;13.10;99.90
45761;DHT22;31471;51.040;14.414;2022-07-15T01:47:57;13.10;99.90
45761;DHT22;31471;51.040;14.414;2022-07-15T01:50:43;13.10;99.90
45761;DHT22;31471;51.040;14.414;2022-07-15T01:53:12;13.00;99.90
45761;DHT22;31471;51.040;14.414;2022-07-15T01:55:39;12.90;99.90
45761;DHT22;31471;51.040;14.414;2022-07-15T01:58:05;12.90;99.90
45761;DHT22;31471;51.040;14.414;2022-07-15T02:00:30;12.90;99.90
45761;DHT22;31471;51.040;14.414;2022-07-15T02:02:56;12.90;99.90
45761;DHT22;31471;51.040;14.414;2022-07-15T02:05:22;12.90;99.90
45761;DHT22;31471;51.040;14.414;2022-07-15T02:07:49;12.80;99.90
45761;DHT22;31471;51.040;14.414;2022-07-15T02:10:17;12.80;99.90
45761;DHT22;31471;51.040;14.414;2022-07-15T02:12:45;12.70;99.90
45761;DHT22;31471;51.040;14.414;2022-07-15T02:15:12;12.80;99.90
45761;DHT22;31471;51.040;14.414;2022-07-15T02:17:43;12.70;99.90
45761;DHT22;31471;51.040;14.414;2022-07-15T02:20:08;12.60;99.90
45761;DHT22;31471;51.040;14.414;2022-07-15T02:22:35;12.60;99.90
45761;DHT22;31471;51.040;14.414;2022-07-15T02:25:03;12.60;99.90
45761;DHT22;31471;51.040;14.414;2022-07-15T02:27:29;12.60;99.90
45761;DHT22;31471;51.040;14.414;2022-07-15T02:29:55;12.50;99.90
45761;DHT22;31471;51.040;14.414;2022-07-15T02:32:21;12.50;99.90
45761;DHT22;31471;51.040;14.414;2022-07-15T02:34:47;12.50;99.90
45761;DHT22;31471;51.040;14.414;2022-07-15T02:37:12;12.40;99.90
45761;DHT22;31471;51.040;14.414;2022-07-15T02:39:38;12.30;99.90
45761;DHT22;31471;51.040;14.414;2022-07-15T02:42:03;12.30;99.90
45761;DHT22;31471;51.040;14.414;2022-07-15T02:44:29;12.30;99.90
45761;DHT22;31471;51.040;14.414;2022-07-15T02:46:55;12.20;99.90
45761;DHT22;31471;51.040;14.414;2022-07-15T02:49:24;12.20;99.90
45761;DHT22;31471;51.040;14.414;2022-07-15T02:51:50;12.20;99.90
45761;DHT22;31471;51.040;14.414;2022-07-15T02:54:17;12.20;99.90
45761;DHT22;31471;51.040;14.414;2022-07-15T02:56:43;12.20;99.90
45761;DHT22;31471;51.040;14.414;2022-07-15T02:59:08;12.20;99.90
45761;DHT22;31471;51.040;14.414;2022-07-15T03:01:35;12.20;99.90
45761;DHT22;31471;51.040;14.414;2022-07-15T03:04:01;12.20;99.90
45761;DHT22;31471;51.040;14.414;2022-07-15T03:06:26;12.10;99.90
45761;DHT22;31471;51.040;14.414;2022-07-15T03:08:52;12.10;99.90
45761;DHT22;31471;51.040;14.414;2022-07-15T03:11:19;12.10;99.90
45761;DHT22;31471;51.040;14.414;2022-07-15T03:13:46;12.10;99.90
45761;DHT22;31471;51.040;14.414;2022-07-15T03:16:12;12.10;99.90
45761;DHT22;31471;51.040;14.414;2022-07-15T03:18:40;12.00;99.90
45761;DHT22;31471;51.040;14.414;2022-07-15T03:21:06;12.00;99.90
45761;DHT22;31471;51.040;14.414;2022-07-15T03:23:31;12.00;99.90
45761;DHT22;31471;51.040;14.414;2022-07-15T03:25:57;11.90;99.90
45761;DHT22;31471;51.040;14.414;2022-07-15T03:28:25;11.90;99.90
45761;DHT22;31471;51.040;14.414;2022-07-15T03:30:51;12.00;99.90
45761;DHT22;31471;51.040;14.414;2022-07-15T03:33:17;12.00;99.90
45761;DHT22;31471;51.040;14.414;2022-07-15T03:35:43;12.00;99.90
45761;DHT22;31471;51.040;14.414;2022-07-15T03:38:10;12.00;99.90
45761;DHT22;31471;51.040;14.414;2022-07-15T03:40:35;12.00;99.90
45761;DHT22;31471;51.040;14.414;2022-07-15T03:43:01;12.00;99.90
45761;DHT22;31471;51.040;14.414;2022-07-15T03:45:28;12.00;99.90
45761;DHT22;31471;51.040;14.414;2022-07-15T03:47:54;12.00;99.90
45761;DHT22;31471;51.040;14.414;2022-07-15T03:50:19;12.10;99.90
45761;DHT22;31471;51.040;14.414;2022-07-15T03:52:45;12.00;99.90
45761;DHT22;31471;51.040;14.414;2022-07-15T03:55:10;12.10;99.90
45761;DHT22;31471;51.040;14.414;2022-07-15T03:57:37;12.10;99.90
45761;DHT22;31471;51.040;14.414;2022-07-15T04:00:03;12.10;99.90
45761;DHT22;31471;51.040;14.414;2022-07-15T04:02:40;12.20;99.90
45761;DHT22;31471;51.040;14.414;2022-07-15T04:05:06;12.20;99.90
45761;DHT22;31471;51.040;14.414;2022-07-15T04:07:31;12.20;99.90
45761;DHT22;31471;51.040;14.414;2022-07-15T04:09:57;12.20;99.90
45761;DHT22;31471;51.040;14.414;2022-07-15T04:12:22;12.30;99.90
45761;DHT22;31471;51.040;14.414;2022-07-15T04:14:48;12.30;99.90
45761;DHT22;31471;51.040;14.414;2022-07-15T04:17:16;12.30;99.90
45761;DHT22;31471;51.040;14.414;2022-07-15T04:19:42;12.40;99.90
45761;DHT22;31471;51.040;14.414;2022-07-15T04:22:07;12.40;99.90
45761;DHT22;31471;51.040;14.414;2022-07-15T04:24:40;12.40;99.90
45761;DHT22;31471;51.040;14.414;2022-07-15T04:27:10;12.40;99.90
45761;DHT22;31471;51.040;14.414;2022-07-15T04:29:35;12.40;99.90
45761;DHT22;31471;51.040;14.414;2022-07-15T04:32:02;12.50;99.90
45761;DHT22;31471;51.040;14.414;2022-07-15T04:34:32;12.40;99.90
45761;DHT22;31471;51.040;14.414;2022-07-15T04:36:58;12.50;99.90
45761;DHT22;31471;51.040;14.414;2022-07-15T04:39:23;12.50;99.90
45761;DHT22;31471;51.040;14.414;2022-07-15T04:41:51;12.60;99.90
45761;DHT22;31471;51.040;14.414;2022-07-15T04:44:17;12.60;99.90
45761;DHT22;31471;51.040;14.414;2022-07-15T04:46:43;12.60;99.90
45761;DHT22;31471;51.040;14.414;2022-07-15T04:49:23;12.70;99.90
45761;DHT22;31471;51.040;14.414;2022-07-15T04:52:07;12.70;99.90
45761;DHT22;31471;51.040;14.414;2022-07-15T04:54:34;12.70;99.90
45761;DHT22;31471;51.040;14.414;2022-07-15T04:57:01;12.80;99.90
45761;DHT22;31471;51.040;14.414;2022-07-15T04:59:26;12.80;99.90
45761;DHT22;31471;51.040;14.414;2022-07-15T05:01:52;12.80;99.90
45761;DHT22;31471;51.040;14.414;2022-07-15T05:04:27;12.80;99.90
45761;DHT22;31471;51.040;14.414;2022-07-15T05:06:52;12.80;99.90
45761;DHT22;31471;51.040;14.414;2022-07-15T05:09:18;12.80;99.90
45761;DHT22;31471;51.040;14.414;2022-07-15T05:11:44;12.90;99.90
45761;DHT22;31471;51.040;14.414;2022-07-15T05:14:09;12.90;99.90
45761;DHT22;31471;51.040;14.414;2022-07-15T05:16:35;12.90;99.90
45761;DHT22;31471;51.040;14.414;2022-07-15T05:19:01;13.00;99.90
45761;DHT22;31471;51.040;14.414;2022-07-15T05:21:26;12.90;99.90
45761;DHT22;31471;51.040;14.414;2022-07-15T05:23:52;13.00;99.90
45761;DHT22;31471;51.040;14.414;2022-07-15T05:26:18;13.00;99.90
45761;DHT22;31471;51.040;14.414;2022-07-15T05:28:44;13.10;99.90
45761;DHT22;31471;51.040;14.414;2022-07-15T05:31:10;13.10;99.90
45761;DHT22;31471;51.040;14.414;2022-07-15T05:33:36;13.10;99.90
45761;DHT22;31471;51.040;14.414;2022-07-15T05:36:04;13.20;99.90
45761;DHT22;31471;51.040;14.414;2022-07-15T05:38:31;13.10;99.90
45761;DHT22;31471;51.040;14.414;2022-07-15T05:40:58;13.20;99.90
45761;DHT22;31471;51.040;14.414;2022-07-15T05:43:25;13.20;99.90
45761;DHT22;31471;51.040;14.414;2022-07-15T05:45:50;13.30;99.90
45761;DHT22;31471;51.040;14.414;2022-07-15T05:48:16;13.40;99.90
45761;DHT22;31471;51.040;14.414;2022-07-15T05:50:48;13.40;99.90
45761;DHT22;31471;51.040;14.414;2022-07-15T05:53:15;13.50;99.90
45761;DHT22;31471;51.040;14.414;2022-07-15T05:55:42;13.50;99.90
45761;DHT22;31471;51.040;14.414;2022-07-15T05:58:12;13.50;99.90
45761;DHT22;31471;51.040;14.414;2022-07-15T06:00:40;13.60;99.90
45761;DHT22;31471;51.040;14.414;2022-07-15T06:03:05;13.70;99.90
45761;DHT22;31471;51.040;14.414;2022-07-15T06:05:38;13.80;99.90
45761;DHT22;31471;51.040;14.414;2022-07-15T06:08:04;13.80;99.90
45761;DHT22;31471;51.040;14.414;2022-07-15T06:10:35;13.90;99.90
45761;DHT22;31471;51.040;14.414;2022-07-15T06:13:01;13.90;99.90
45761;DHT22;31471;51.040;14.414;2022-07-15T06:15:28;13.90;99.90
45761;DHT22;31471;51.040;14.414;2022-07-15T06:17:55;13.90;99.90
45761;DHT22;31471;51.040;14.414;2022-07-15T06:20:23;14.00;99.90
45761;DHT22;31471;51.040;14.414;2022-07-15T06:22:48;14.10;99.90
45761;DHT22;31471;51.040;14.414;2022-07-15T06:25:14;14.20;99.90
45761;DHT22;31471;51.040;14.414;2022-07-15T06:27:42;14.10;99.90
45761;DHT22;31471;51.040;14.414;2022-07-15T06:30:07;14.30;99.90
45761;DHT22;31471;51.040;14.414;2022-07-15T06:32:33;14.30;99.90
45761;DHT22;31471;51.040;14.414;2022-07-15T06:34:59;14.40;99.90
45761;DHT22;31471;51.040;14.414;2022-07-15T06:37:25;14.50;99.90
45761;DHT22;31471;51.040;14.414;2022-07-15T06:39:50;14.60;99.90
45761;DHT22;31471;51.040;14.414;2022-07-15T06:42:19;14.70;99.90
45761;DHT22;31471;51.040;14.414;2022-07-15T06:44:57;14.70;99.90
45761;DHT22;31471;51.040;14.414;2022-07-15T06:47:22;14.80;99.90
45761;DHT22;31471;51.040;14.414;2022-07-15T06:49:48;15.10;99.90
45761;DHT22;31471;51.040;14.414;2022-07-15T06:52:18;15.00;99.90
45761;DHT22;31471;51.040;14.414;2022-07-15T06:54:43;14.90;99.90
45761;DHT22;31471;51.040;14.414;2022-07-15T06:57:09;15.00;99.90
45761;DHT22;31471;51.040;14.414;2022-07-15T06:59:35;15.10;99.90
45761;DHT22;31471;51.040;14.414;2022-07-15T07:02:03;15.20;99.90
45761;DHT22;31471;51.040;14.414;2022-07-15T07:04:28;15.20;99.90
45761;DHT22;31471;51.040;14.414;2022-07-15T07:06:54;15.10;99.90
45761;DHT22;31471;51.040;14.414;2022-07-15T07:09:19;15.30;99.90
45761;DHT22;31471;51.040;14.414;2022-07-15T07:11:45;15.50;99.90
45761;DHT22;31471;51.040;14.414;2022-07-15T07:14:10;15.60;99.90
45761;DHT22;31471;51.040;14.414;2022-07-15T07:16:38;15.60;99.90
45761;DHT22;31471;51.040;14.414;2022-07-15T07:19:04;15.90;99.90
45761;DHT22;31471;51.040;14.414;2022-07-15T07:21:29;16.20;99.90
45761;DHT22;31471;51.040;14.414;2022-07-15T07:23:55;16.20;99.90
45761;DHT22;31471;51.040;14.414;2022-07-15T07:26:20;16.20;99.90
45761;DHT22;31471;51.040;14.414;2022-07-15T07:28:46;16.50;99.90
45761;DHT22;31471;51.040;14.414;2022-07-15T07:31:14;16.50;99.90
45761;DHT22;31471;51.040;14.414;2022-07-15T07:33:39;16.50;99.90
45761;DHT22;31471;51.040;14.414;2022-07-15T07:36:05;16.40;99.90
45761;DHT22;31471;51.040;14.414;2022-07-15T07:38:31;16.70;99.90
45761;DHT22;31471;51.040;14.414;2022-07-15T07:40:58;16.70;99.90
45761;DHT22;31471;51.040;14.414;2022-07-15T07:43:24;16.70;99.90
45761;DHT22;31471;51.040;14.414;2022-07-15T07:45:50;16.70;99.90
45761;DHT22;31471;51.040;14.414;2022-07-15T07:48:16;16.90;99.90
45761;DHT22;31471;51.040;14.414;2022-07-15T07:50:42;17.00;99.90
45761;DHT22;31471;51.040;14.414;2022-07-15T07:53:08;17.20;99.90
45761;DHT22;31471;51.040;14.414;2022-07-15T07:55:33;17.10;99.90
45761;DHT22;31471;51.040;14.414;2022-07-15T07:57:59;17.60;99.90
45761;DHT22;31471;51.040;14.414;2022-07-15T08:00:25;17.80;99.90
45761;DHT22;31471;51.040;14.414;2022-07-15T08:02:54;17.80;99.90
45761;DHT22;31471;51.040;14.414;2022-07-15T08:05:20;17.80;99.90
45761;DHT22;31471;51.040;14.414;2022-07-15T08:07:46;17.70;99.90
45761;DHT22;31471;51.040;14.414;2022-07-15T08:10:12;17.90;99.90
45761;DHT22;31471;51.040;14.414;2022-07-15T08:12:38;18.10;99.90
45761;DHT22;31471;51.040;14.414;2022-07-15T08:15:08;17.90;99.90
45761;DHT22;31471;51.040;14.414;2022-07-15T08:17:36;18.30;99.90
45761;DHT22;31471;51.040;14.414;2022-07-15T08:20:04;18.30;99.90
45761;DHT22;31471;51.040;14.414;2022-07-15T08:22:29;18.50;99.90
45761;DHT22;31471;51.040;14.414;2022-07-15T08:24:56;18.20;99.90
45761;DHT22;31471;51.040;14.414;2022-07-15T08:27:21;18.00;99.90
45761;DHT22;31471;51.040;14.414;2022-07-15T08:29:47;18.00;99.80
45761;DHT22;31471;51.040;14.414;2022-07-15T08:32:13;18.30;99.60
45761;DHT22;31471;51.040;14.414;2022-07-15T08:34:38;18.50;99.90
45761;DHT22;31471;51.040;14.414;2022-07-15T08:37:07;18.50;99.90
45761;DHT22;31471;51.040;14.414;2022-07-15T08:39:32;18.90;98.60
45761;DHT22;31471;51.040;14.414;2022-07-15T08:41:58;18.60;99.40
45761;DHT22;31471;51.040;14.414;2022-07-15T08:44:23;18.30;98.00
45761;DHT22;31471;51.040;14.414;2022-07-15T08:46:49;18.60;99.90
45761;DHT22;31471;51.040;14.414;2022-07-15T08:49:16;18.60;99.90
45761;DHT22;31471;51.040;14.414;2022-07-15T08:51:42;18.60;99.10
45761;DHT22;31471;51.040;14.414;2022-07-15T08:54:08;18.60;99.60
45761;DHT22;31471;51.040;14.414;2022-07-15T08:56:34;18.50;98.60
45761;DHT22;31471;51.040;14.414;2022-07-15T08:59:01;18.80;98.50
45761;DHT22;31471;51.040;14.414;2022-07-15T09:01:30;18.60;98.00
45761;DHT22;31471;51.040;14.414;2022-07-15T09:03:56;18.30;99.40
45761;DHT22;31471;51.040;14.414;2022-07-15T09:06:39;18.30;99.20
45761;DHT22;31471;51.040;14.414;2022-07-15T09:14:25;19.40;97.00
45761;DHT22;31471;51.040;14.414;2022-07-15T09:17:00;19.30;95.80
45761;DHT22;31471;51.040;14.414;2022-07-15T09:19:29;19.20;97.60
45761;DHT22;31471;51.040;14.414;2022-07-15T09:22:00;19.20;96.10
45761;DHT22;31471;51.040;14.414;2022-07-15T09:24:27;19.10;96.50
45761;DHT22;31471;51.040;14.414;2022-07-15T09:26:52;19.20;97.20
45761;DHT22;31471;51.040;14.414;2022-07-15T09:29:18;19.00;97.00
45761;DHT22;31471;51.040;14.414;2022-07-15T09:32:02;18.90;95.30
45761;DHT22;31471;51.040;14.414;2022-07-15T09:35:00;18.60;95.90
45761;DHT22;31471;51.040;14.414;2022-07-15T09:37:26;18.60;97.10
45761;DHT22;31471;51.040;14.414;2022-07-15T09:39:55;19.30;98.30
45761;DHT22;31471;51.040;14.414;2022-07-15T09:42:21;19.00;95.60
45761;DHT22;31471;51.040;14.414;2022-07-15T09:44:46;18.90;95.70
45761;DHT22;31471;51.040;14.414;2022-07-15T09:47:15;18.70;95.90
45761;DHT22;31471;51.040;14.414;2022-07-15T09:49:41;18.50;95.10
45761;DHT22;31471;51.040;14.414;2022-07-15T09:52:07;18.90;97.70
45761;DHT22;31471;51.040;14.414;2022-07-15T09:54:34;19.30;98.70
45761;DHT22;31471;51.040;14.414;2022-07-15T09:57:03;19.40;96.60
45761;DHT22;31471;51.040;14.414;2022-07-15T09:59:29;19.20;96.40
45761;DHT22;31471;51.040;14.414;2022-07-15T10:01:55;18.80;95.10
45761;DHT22;31471;51.040;14.414;2022-07-15T10:04:21;18.90;95.60
45761;DHT22;31471;51.040;14.414;2022-07-15T10:06:47;19.00;96.10
45761;DHT22;31471;51.040;14.414;2022-07-15T10:09:13;19.80;98.50
45761;DHT22;31471;51.040;14.414;2022-07-15T10:11:46;20.00;94.00
45761;DHT22;31471;51.040;14.414;2022-07-15T10:17:01;20.00;92.10
45761;DHT22;31471;51.040;14.414;2022-07-15T10:22:19;19.50;93.00
45761;DHT22;31471;51.040;14.414;2022-07-15T10:24:52;19.20;94.30
45761;DHT22;31471;51.040;14.414;2022-07-15T10:27:38;19.40;94.50
45761;DHT22;31471;51.040;14.414;2022-07-15T10:30:07;20.10;93.40
45761;DHT22;31471;51.040;14.414;2022-07-15T10:33:05;20.60;90.30
45761;DHT22;31471;51.040;14.414;2022-07-15T10:35:38;20.60;91.60
45761;DHT22;31471;51.040;14.414;2022-07-15T10:38:24;20.40;91.00
45761;DHT22;31471;51.040;14.414;2022-07-15T10:40:57;20.10;88.40
45761;DHT22;31471;51.040;14.414;2022-07-15T10:48:42;19.80;91.30
45761;DHT22;31471;51.040;14.414;2022-07-15T10:51:08;19.40;91.70
45761;DHT22;31471;51.040;14.414;2022-07-15T10:53:41;20.10;92.90
45761;DHT22;31471;51.040;14.414;2022-07-15T10:59:07;20.60;88.40
45761;DHT22;31471;51.040;14.414;2022-07-15T11:01:34;20.50;90.70
45761;DHT22;31471;51.040;14.414;2022-07-15T11:04:13;20.70;90.00
45761;DHT22;31471;51.040;14.414;2022-07-15T11:12:08;20.40;89.10
45761;DHT22;31471;51.040;14.414;2022-07-15T11:14:42;20.60;90.70
45761;DHT22;31471;51.040;14.414;2022-07-15T11:17:07;21.40;87.50
45761;DHT22;31471;51.040;14.414;2022-07-15T11:19:34;21.10;83.20
45761;DHT22;31471;51.040;14.414;2022-07-15T11:22:00;20.90;86.40
45761;DHT22;31471;51.040;14.414;2022-07-15T11:24:26;20.80;84.90
45761;DHT22;31471;51.040;14.414;2022-07-15T11:26:53;21.00;85.70
45761;DHT22;31471;51.040;14.414;2022-07-15T11:29:18;21.40;85.50
45761;DHT22;31471;51.040;14.414;2022-07-15T11:31:44;21.30;85.00
45761;DHT22;31471;51.040;14.414;2022-07-15T11:34:10;21.20;83.80
45761;DHT22;31471;51.040;14.414;2022-07-15T11:36:35;21.50;83.60
45761;DHT22;31471;51.040;14.414;2022-07-15T11:39:01;21.50;82.70
45761;DHT22;31471;51.040;14.414;2022-07-15T11:41:27;21.20;83.80
45761;DHT22;31471;51.040;14.414;2022-07-15T11:44:11;21.50;83.00
45761;DHT22;31471;51.040;14.414;2022-07-15T11:46:56;21.50;81.50
45761;DHT22;31471;51.040;14.414;2022-07-15T11:49:28;21.50;82.10
45761;DHT22;31471;51.040;14.414;2022-07-15T11:51:55;21.60;82.20
45761;DHT22;31471;51.040;14.414;2022-07-15T11:54:21;21.30;80.00
45761;DHT22;31471;51.040;14.414;2022-07-15T11:56:56;21.60;83.30
45761;DHT22;31471;51.040;14.414;2022-07-15T11:59:22;21.60;81.50
45761;DHT22;31471;51.040;14.414;2022-07-15T12:01:47;22.10;82.50
45761;DHT22;31471;51.040;14.414;2022-07-15T12:04:14;22.60;83.80
45761;DHT22;31471;51.040;14.414;2022-07-15T12:06:39;22.40;77.30
45761;DHT22;31471;51.040;14.414;2022-07-15T12:09:05;22.50;77.10
45761;DHT22;31471;51.040;14.414;2022-07-15T12:11:34;22.90;76.20
45761;DHT22;31471;51.040;14.414;2022-07-15T12:14:04;23.30;75.40
45761;DHT22;31471;51.040;14.414;2022-07-15T12:19:08;22.80;74.00
45761;DHT22;31471;51.040;14.414;2022-07-15T12:21:37;22.70;73.00
45761;DHT22;31471;51.040;14.414;2022-07-15T12:24:10;23.20;74.60
45761;DHT22;31471;51.040;14.414;2022-07-15T12:26:37;23.90;77.30
45761;DHT22;31471;51.040;14.414;2022-07-15T12:29:08;24.30;72.20
45761;DHT22;31471;51.040;14.414;2022-07-15T12:31:34;23.60;72.20
45761;DHT22;31471;51.040;14.414;2022-07-15T12:34:00;23.40;75.60
45761;DHT22;31471;51.040;14.414;2022-07-15T12:36:27;22.50;70.70
45761;DHT22;31471;51.040;14.414;2022-07-15T12:39:07;22.50;74.70
45761;DHT22;31471;51.040;14.414;2022-07-15T12:41:33;22.30;74.50
45761;DHT22;31471;51.040;14.414;2022-07-15T12:43:59;22.70;73.70
45761;DHT22;31471;51.040;14.414;2022-07-15T12:49:11;23.10;72.60
45761;DHT22;31471;51.040;14.414;2022-07-15T12:51:37;22.60;72.30
45761;DHT22;31471;51.040;14.414;2022-07-15T12:54:03;22.90;71.80
45761;DHT22;31471;51.040;14.414;2022-07-15T12:56:30;23.40;73.90
45761;DHT22;31471;51.040;14.414;2022-07-15T12:58:55;22.90;71.50
45761;DHT22;31471;51.040;14.414;2022-07-15T13:01:21;22.40;73.50
45761;DHT22;31471;51.040;14.414;2022-07-15T13:03:46;22.70;73.60
45761;DHT22;31471;51.040;14.414;2022-07-15T13:06:13;22.40;71.20
45761;DHT22;31471;51.040;14.414;2022-07-15T13:08:40;22.70;73.50
45761;DHT22;31471;51.040;14.414;2022-07-15T13:11:06;22.70;70.70
45761;DHT22;31471;51.040;14.414;2022-07-15T13:13:34;22.50;72.30
45761;DHT22;31471;51.040;14.414;2022-07-15T13:16:00;22.60;71.60
45761;DHT22;31471;51.040;14.414;2022-07-15T13:18:27;22.60;71.20
45761;DHT22;31471;51.040;14.414;2022-07-15T13:20:53;22.80;73.00
45761;DHT22;31471;51.040;14.414;2022-07-15T13:23:19;22.40;74.00
45761;DHT22;31471;51.040;14.414;2022-07-15T13:25:44;22.40;71.10
45761;DHT22;31471;51.040;14.414;2022-07-15T13:28:10;22.40;71.10
45761;DHT22;31471;51.040;14.414;2022-07-15T13:30:37;22.60;72.60
45761;DHT22;31471;51.040;14.414;2022-07-15T13:33:03;22.60;71.50
45761;DHT22;31471;51.040;14.414;2022-07-15T13:35:28;22.20;70.30
45761;DHT22;31471;51.040;14.414;2022-07-15T13:37:54;22.10;71.20
45761;DHT22;31471;51.040;14.414;2022-07-15T13:40:19;22.40;73.10
45761;DHT22;31471;51.040;14.414;2022-07-15T13:42:45;22.30;73.70
45761;DHT22;31471;51.040;14.414;2022-07-15T13:45:12;22.10;73.40
45761;DHT22;31471;51.040;14.414;2022-07-15T13:47:38;22.30;71.40
45761;DHT22;31471;51.040;14.414;2022-07-15T13:50:04;22.30;71.30
45761;DHT22;31471;51.040;14.414;2022-07-15T13:52:49;22.10;71.40
45761;DHT22;31471;51.040;14.414;2022-07-15T13:55:15;22.80;72.50
45761;DHT22;31471;51.040;14.414;2022-07-15T13:57:41;23.10;70.60
45761;DHT22;31471;51.040;14.414;2022-07-15T14:00:07;23.00;68.90
45761;DHT22;31471;51.040;14.414;2022-07-15T14:02:34;22.50;68.40
45761;DHT22;31471;51.040;14.414;2022-07-15T14:04:59;22.50;69.70
45761;DHT22;31471;51.040;14.414;2022-07-15T14:07:25;22.60;69.30
45761;DHT22;31471;51.040;14.414;2022-07-15T14:09:50;22.30;69.30
45761;DHT22;31471;51.040;14.414;2022-07-15T14:12:17;22.30;70.70
45761;DHT22;31471;51.040;14.414;2022-07-15T14:14:43;22.10;70.20
45761;DHT22;31471;51.040;14.414;2022-07-15T14:17:08;22.10;69.50
45761;DHT22;31471;51.040;14.414;2022-07-15T14:19:34;22.20;72.90
45761;DHT22;31471;51.040;14.414;2022-07-15T14:21:59;22.60;69.80
45761;DHT22;31471;51.040;14.414;2022-07-15T14:24:24;22.70;70.40
45761;DHT22;31471;51.040;14.414;2022-07-15T14:26:50;22.60;70.30
45761;DHT22;31471;51.040;14.414;2022-07-15T14:29:16;22.60;71.40
45761;DHT22;31471;51.040;14.414;2022-07-15T14:31:41;23.00;72.70
45761;DHT22;31471;51.040;14.414;2022-07-15T14:34:07;23.20;70.90
45761;DHT22;31471;51.040;14.414;2022-07-15T14:36:33;23.00;68.70
45761;DHT22;31471;51.040;14.414;2022-07-15T14:38:58;23.00;70.90
45761;DHT22;31471;51.040;14.414;2022-07-15T14:41:24;22.90;72.40
45761;DHT22;31471;51.040;14.414;2022-07-15T14:43:49;22.90;70.30
45761;DHT22;31471;51.040;14.414;2022-07-15T14:46:15;23.10;68.30
45761;DHT22;31471;51.040;14.414;2022-07-15T14:48:40;23.00;71.00
45761;DHT22;31471;51.040;14.414;2022-07-15T14:51:06;23.20;71.60
45761;DHT22;31471;51.040;14.414;2022-07-15T14:53:31;22.90;69.20
45761;DHT22;31471;51.040;14.414;2022-07-15T14:55:57;22.60;67.80
45761;DHT22;31471;51.040;14.414;2022-07-15T14:58:23;22.50;69.80
45761;DHT22;31471;51.040;14.414;2022-07-15T15:00:48;22.50;69.10
45761;DHT22;31471;51.040;14.414;2022-07-15T15:03:14;22.30;70.00
45761;DHT22;31471;51.040;14.414;2022-07-15T15:05:41;22.30;70.70
45761;DHT22;31471;51.040;14.414;2022-07-15T15:08:06;22.60;71.30
45761;DHT22;31471;51.040;14.414;2022-07-15T15:10:31;22.40;69.20
45761;DHT22;31471;51.040;14.414;2022-07-15T15:12:57;22.30;68.60
45761;DHT22;31471;51.040;14.414;2022-07-15T15:15:22;22.10;69.30
45761;DHT22;31471;51.040;14.414;2022-07-15T15:17:49;22.30;70.90
45761;DHT22;31471;51.040;14.414;2022-07-15T15:20:17;22.00;69.80
45761;DHT22;31471;51.040;14.414;2022-07-15T15:22:44;22.00;68.90
45761;DHT22;31471;51.040;14.414;2022-07-15T15:25:10;22.00;69.20
45761;DHT22;31471;51.040;14.414;2022-07-15T15:27:35;21.80;70.00
45761;DHT22;31471;51.040;14.414;2022-07-15T15:30:02;21.70;70.40
45761;DHT22;31471;51.040;14.414;2022-07-15T15:32:28;22.00;71.20
45761;DHT22;31471;51.040;14.414;2022-07-15T15:34:54;22.00;69.90
45761;DHT22;31471;51.040;14.414;2022-07-15T15:37:19;21.90;71.60
45761;DHT22;31471;51.040;14.414;2022-07-15T15:39:45;21.90;69.10
45761;DHT22;31471;51.040;14.414;2022-07-15T15:42:11;21.70;71.80
45761;DHT22;31471;51.040;14.414;2022-07-15T15:44:36;21.90;72.60